Time;durP1;ratioP1;P1;durP2;ratioP2;P2;SDS_P1;SDS_P2;PMS_P1;PMS_P2;Temp;Humidity;BMP_temperature;BMP_pressure;BME280_temperature;BME280_humidity;BME280_pressure;Samples;Min_cycle;Max_cycle;Signal;HPM_P1;HPM_P2
2021/09/19 00:00:04;;;;;;;17.05;14.45;;;;;;;16.03;85.23;99072.81;5076566;28;20195;-74
2021/09/19 00:02:31;;;;;;;17.80;15.95;;;;;;;15.94;86.13;99059.19;5076398;28;20220;-74
2021/09/19 00:04:57;;;;;;;17.90;16.10;;;;;;;15.97;85.82;99067.94;5076276;28;20680;-74
2021/09/19 00:07:24;;;;;;;14.50;13.10;;;;;;;15.82;86.27;99058.41;5076485;28;20535;-75
2021/09/19 00:09:52;;;;;;;15.38;13.77;;;;;;;15.79;86.87;99053.28;5076403;28;20223;-74
2021/09/19 00:12:18;;;;;;;15.88;13.13;;;;;;;15.85;86.58;99058.13;5076376;28;20204;-74
2021/09/19 00:14:45;;;;;;;16.40;14.15;;;;;;;15.86;86.21;99054.44;5076100;28;20618;-74
2021/09/19 00:17:12;;;;;;;15.55;13.82;;;;;;;15.74;86.89;99048.25;5076094;28;20615;-74
2021/09/19 00:19:39;;;;;;;15.00;13.50;;;;;;;15.88;86.63;99052.47;5076426;28;20283;-74
2021/09/19 00:22:06;;;;;;;14.25;12.85;;;;;;;16.04;85.01;99050.09;5076747;28;20658;-72
2021/09/19 00:24:33;;;;;;;14.05;12.63;;;;;;;15.98;84.97;99042.47;5076002;28;20232;-74
2021/09/19 00:27:02;;;;;;;14.35;12.88;;;;;;;15.90;85.03;99044.19;5075819;28;20268;-72
2021/09/19 00:29:30;;;;;;;14.27;12.88;;;;;;;15.93;84.53;99033.03;5075333;28;20193;-73
2021/09/19 00:31:57;;;;;;;13.30;12.00;;;;;;;15.98;84.80;99039.75;5075909;28;20220;-74
2021/09/19 00:34:24;;;;;;;13.02;11.75;;;;;;;16.08;84.09;99031.69;5076352;28;20188;-74
2021/09/19 00:36:51;;;;;;;16.35;12.95;;;;;;;15.85;85.14;99039.13;5075984;28;20682;-73
2021/09/19 00:39:17;;;;;;;15.18;12.80;;;;;;;15.77;85.97;99033.53;5075758;28;20627;-73
2021/09/19 00:41:44;;;;;;;15.65;13.60;;;;;;;15.69;86.94;99034.19;5075722;28;20216;-73
2021/09/19 00:44:12;;;;;;;13.85;12.50;;;;;;;15.68;87.00;99029.75;5075571;28;20216;-73
2021/09/19 00:46:39;;;;;;;13.43;12.07;;;;;;;15.58;87.41;99023.41;5075933;28;20236;-74
2021/09/19 00:49:06;;;;;;;12.90;11.60;;;;;;;15.65;86.85;99021.91;5075422;28;20199;-73
2021/09/19 00:51:34;;;;;;;13.43;11.98;;;;;;;15.54;87.98;99016.56;5075615;28;20199;-73
2021/09/19 00:54:03;;;;;;;14.63;12.70;;;;;;;15.50;88.38;99012.38;5075547;28;20526;-73
2021/09/19 00:56:31;;;;;;;16.75;14.90;;;;;;;15.58;88.06;99008.00;5075526;28;20195;-73
2021/09/19 00:58:58;;;;;;;13.45;12.05;;;;;;;15.51;88.36;99011.38;5075302;28;20660;-73
2021/09/19 01:01:27;;;;;;;14.95;12.93;;;;;;;15.50;88.58;99009.69;5074252;28;20204;-73
2021/09/19 01:03:55;;;;;;;13.30;11.90;;;;;;;15.49;88.56;99007.94;5075013;28;20200;-73
2021/09/19 01:06:22;;;;;;;13.30;12.00;;;;;;;15.49;88.15;99011.53;5075422;28;20223;-73
2021/09/19 01:08:50;;;;;;;15.00;12.00;;;;;;;15.62;87.47;99012.19;5075425;28;20196;-73
2021/09/19 01:11:20;;;;;;;14.57;13.07;;;;;;;15.74;86.48;99012.97;5075715;28;20192;-73
2021/09/19 01:13:47;;;;;;;13.05;11.50;;;;;;;15.45;87.95;99010.09;5074861;28;20185;-73
2021/09/19 01:16:16;;;;;;;13.27;11.88;;;;;;;15.32;89.01;98998.59;5074555;28;20275;-73
2021/09/19 01:18:46;;;;;;;15.90;12.05;;;;;;;15.22;89.86;99001.25;5075110;28;20975;-73
2021/09/19 01:21:15;;;;;;;12.52;11.30;;;;;;;15.21;90.54;99003.06;5074969;28;20300;-73
2021/09/19 01:23:55;;;;;;;12.23;10.93;;;;;;;15.31;89.87;98999.56;5075478;28;20191;-73
2021/09/19 01:26:22;;;;;;;12.38;11.07;;;;;;;15.27;89.64;98998.97;5074714;28;20305;-73
2021/09/19 01:28:56;;;;;;;15.23;12.20;;;;;;;15.38;89.26;99008.91;5074643;28;20192;-74
2021/09/19 01:31:31;;;;;;;11.27;10.18;;;;;;;15.30;89.51;99004.13;5074588;28;20238;-74
2021/09/19 01:33:57;;;;;;;12.13;11.00;;;;;;;15.23;89.89;99003.81;5074690;28;20698;-74
2021/09/19 01:36:24;;;;;;;13.05;11.60;;;;;;;15.28;90.19;99002.53;5074628;28;20286;-74
2021/09/19 01:38:52;;;;;;;12.10;10.45;;;;;;;15.29;89.48;98991.56;5074337;28;20185;-74
2021/09/19 01:41:20;;;;;;;11.90;10.68;;;;;;;15.22;90.25;98999.38;5074085;28;20230;-74
2021/09/19 01:43:47;;;;;;;11.15;10.00;;;;;;;15.22;90.05;99003.97;5074198;28;20184;-74
2021/09/19 01:46:14;;;;;;;11.75;10.55;;;;;;;15.05;91.14;99009.97;5074768;28;20562;-74
2021/09/19 01:48:43;;;;;;;11.38;10.00;;;;;;;15.07;91.05;98998.00;5074593;28;20190;-74
2021/09/19 01:51:11;;;;;;;13.45;11.60;;;;;;;15.04;91.31;98994.69;5074505;28;20580;-74
2021/09/19 01:53:39;;;;;;;12.75;10.50;;;;;;;15.05;91.17;98978.28;5074584;28;20204;-74
2021/09/19 01:56:08;;;;;;;11.73;10.52;;;;;;;14.88;92.24;98992.44;5074508;28;20191;-74
2021/09/19 01:58:41;;;;;;;11.60;10.40;;;;;;;14.98;92.01;98977.09;5073711;28;20196;-74
2021/09/19 02:01:07;;;;;;;14.18;11.35;;;;;;;14.90;92.33;98988.63;5074024;28;20251;-74
2021/09/19 02:03:36;;;;;;;11.65;10.55;;;;;;;14.96;92.00;98989.94;5073965;28;20185;-74
2021/09/19 02:06:03;;;;;;;12.40;10.90;;;;;;;14.90;92.23;98988.63;5074077;28;20218;-74
2021/09/19 02:08:29;;;;;;;11.32;10.13;;;;;;;14.85;92.73;98979.16;5074060;28;20211;-74
2021/09/19 02:10:56;;;;;;;11.68;10.48;;;;;;;14.96;91.87;98989.94;5074115;28;20189;-73
2021/09/19 02:13:24;;;;;;;11.10;9.88;;;;;;;14.98;91.05;98985.22;5074246;28;20184;-74
2021/09/19 02:15:51;;;;;;;12.02;9.98;;;;;;;14.86;91.67;98989.00;5074104;28;20676;-73
2021/09/19 02:18:17;;;;;;;11.10;10.00;;;;;;;14.87;91.43;98979.88;5074392;28;20184;-73
2021/09/19 02:20:44;;;;;;;11.43;10.23;;;;;;;14.79;92.47;98981.41;5074200;28;20184;-73
2021/09/19 02:23:10;;;;;;;11.40;10.20;;;;;;;14.73;92.76;98984.63;5073806;28;20203;-73
2021/09/19 02:25:37;;;;;;;10.32;9.05;;;;;;;14.89;91.75;98977.91;5073390;28;20232;-74
2021/09/19 02:28:04;;;;;;;281.95;187.90;;;;;;;15.06;89.91;98989.97;5073596;28;20195;-74
2021/09/19 02:30:32;;;;;;;11.02;9.18;;;;;;;14.92;90.23;98991.19;5074164;28;20287;-74
2021/09/19 02:32:58;;;;;;;10.82;9.73;;;;;;;15.07;89.70;98992.56;5073706;28;20184;-74
2021/09/19 02:35:25;;;;;;;13.25;9.98;;;;;;;14.97;89.74;98997.09;5073582;28;20279;-74
2021/09/19 02:37:51;;;;;;;14.98;9.50;;;;;;;15.08;89.14;98996.13;5074031;28;20558;-74
2021/09/19 02:40:19;;;;;;;10.20;8.85;;;;;;;14.87;89.54;98990.72;5073757;28;20358;-74
2021/09/19 02:42:46;;;;;;;9.85;8.85;;;;;;;14.82;90.74;98991.13;5073666;28;20328;-74
2021/09/19 02:45:13;;;;;;;12.27;10.70;;;;;;;14.66;91.81;98991.56;5073923;28;20185;-74
2021/09/19 02:47:41;;;;;;;10.90;9.70;;;;;;;14.65;92.07;98991.69;5074217;28;20294;-74
2021/09/19 02:50:10;;;;;;;10.30;9.30;;;;;;;14.65;91.78;98986.25;5073113;28;20196;-74
2021/09/19 02:52:36;;;;;;;10.82;9.57;;;;;;;14.70;91.08;98989.47;5073250;28;20270;-73
2021/09/19 02:55:04;;;;;;;11.40;8.90;;;;;;;14.55;92.75;98983.47;5073025;28;20204;-73
2021/09/19 02:57:30;;;;;;;10.80;9.70;;;;;;;14.58;92.09;98977.78;5072874;28;20278;-73
2021/09/19 02:59:57;;;;;;;10.25;9.18;;;;;;;14.49;93.09;98981.25;5072831;28;20187;-72
2021/09/19 03:02:23;;;;;;;11.98;10.68;;;;;;;14.50;93.23;98975.72;5072333;28;20238;-74
2021/09/19 03:04:51;;;;;;;10.52;9.52;;;;;;;14.39;93.41;98968.47;5072758;28;20550;-74
2021/09/19 03:07:18;;;;;;;10.18;9.18;;;;;;;14.55;92.71;98969.94;5072923;28;20192;-74
2021/09/19 03:09:44;;;;;;;9.45;8.45;;;;;;;14.41;93.15;98965.66;5073125;28;20229;-74
2021/09/19 03:12:11;;;;;;;11.38;9.50;;;;;;;14.35;94.03;98945.34;5072997;28;20191;-74
2021/09/19 03:14:37;;;;;;;9.02;8.13;;;;;;;14.30;94.04;98935.91;5064486;28;20274;-74
2021/09/19 03:17:04;;;;;;;9.18;8.27;;;;;;;14.34;93.74;98937.38;5072680;28;20267;-74
2021/09/19 03:19:31;;;;;;;10.25;8.57;;;;;;;14.32;94.24;98932.06;5072491;28;20196;-73
2021/09/19 03:21:59;;;;;;;9.73;8.73;;;;;;;14.36;93.78;98932.69;5072736;28;20735;-74
2021/09/19 03:24:25;;;;;;;11.02;9.93;;;;;;;14.19;94.97;98934.94;5075502;28;20192;-74
2021/09/19 03:26:52;;;;;;;10.05;9.05;;;;;;;14.33;94.00;98955.44;5076447;28;20325;-74
2021/09/19 03:29:19;;;;;;;10.05;9.15;;;;;;;14.10;94.99;98951.94;5076846;28;20186;-74
2021/09/19 03:31:45;;;;;;;10.27;9.15;;;;;;;14.17;94.67;98947.75;5076882;28;20533;-74
2021/09/19 03:34:12;;;;;;;11.93;9.57;;;;;;;14.23;93.87;98948.25;5076479;28;20230;-73
2021/09/19 03:36:39;;;;;;;10.80;9.80;;;;;;;14.02;95.39;98948.16;5076232;28;20281;-74
2021/09/19 03:39:07;;;;;;;9.65;8.73;;;;;;;14.16;94.69;98943.34;5076571;28;20195;-74
2021/09/19 03:41:34;;;;;;;10.60;9.13;;;;;;;14.16;94.34;98937.91;5076477;28;20298;-74
2021/09/19 03:44:01;;;;;;;9.18;8.27;;;;;;;14.29;93.26;98937.75;5076575;28;20209;-74
2021/09/19 03:46:28;;;;;;;10.95;7.93;;;;;;;14.26;93.17;98939.84;5076412;28;20198;-74
2021/09/19 03:48:55;;;;;;;8.25;7.45;;;;;;;14.24;92.32;98949.94;5076392;28;20190;-73
2021/09/19 03:51:21;;;;;;;8.77;7.70;;;;;;;14.30;92.50;98954.84;5076505;28;20214;-74
2021/09/19 03:53:48;;;;;;;8.90;8.00;;;;;;;14.41;91.19;98959.38;5075856;28;20199;-74
2021/09/19 03:56:16;;;;;;;10.05;9.15;;;;;;;14.11;92.27;98955.50;5076296;28;20519;-74
2021/09/19 03:58:48;;;;;;;8.27;7.57;;;;;;;13.96;94.30;98952.25;5076170;28;20566;-74
2021/09/19 04:01:15;;;;;;;8.88;7.97;;;;;;;13.94;94.92;98960.47;5076528;28;20190;-73
2021/09/19 04:03:42;;;;;;;9.15;7.90;;;;;;;13.98;94.25;98966.50;5076138;28;20289;-73
2021/09/19 04:06:08;;;;;;;9.10;7.80;;;;;;;13.79;95.66;98960.88;5076414;28;20241;-73
2021/09/19 04:08:35;;;;;;;8.55;7.55;;;;;;;13.93;94.59;98964.19;5075547;28;20205;-74
2021/09/19 04:11:02;;;;;;;8.30;7.13;;;;;;;13.94;94.51;98974.00;5075724;28;20191;-73
2021/09/19 04:13:30;;;;;;;10.70;7.70;;;;;;;14.20;92.18;98979.16;5075789;28;20196;-74
2021/09/19 04:15:56;;;;;;;8.10;7.30;;;;;;;14.08;92.59;98977.44;5075592;28;20536;-74
2021/09/19 04:18:23;;;;;;;8.00;7.20;;;;;;;14.24;91.14;98974.31;5076309;28;20202;-74
2021/09/19 04:20:49;;;;;;;8.45;7.65;;;;;;;14.23;90.93;98980.72;5075476;28;20191;-74
2021/09/19 04:23:16;;;;;;;7.85;7.05;;;;;;;14.13;91.43;98975.19;5075626;28;20243;-74
2021/09/19 04:25:43;;;;;;;8.75;7.00;;;;;;;14.00;93.04;98985.31;5075093;28;20232;-74
2021/09/19 04:28:09;;;;;;;7.50;6.80;;;;;;;13.99;93.07;98976.34;5075395;28;20231;-74
2021/09/19 04:30:37;;;;;;;7.82;6.85;;;;;;;13.95;93.27;98972.16;5075590;28;20284;-73
2021/09/19 04:33:04;;;;;;;7.95;7.07;;;;;;;13.93;93.63;98972.31;5075764;28;20209;-73
2021/09/19 04:35:30;;;;;;;7.65;6.65;;;;;;;13.93;93.40;98975.00;5074262;28;20201;-74
2021/09/19 04:37:57;;;;;;;7.82;6.68;;;;;;;13.94;93.09;98974.00;5075216;28;20189;-74
2021/09/19 04:40:24;;;;;;;7.63;6.93;;;;;;;13.89;93.33;98972.69;5075094;28;20294;-74
2021/09/19 04:42:51;;;;;;;7.57;6.40;;;;;;;13.70;94.58;98973.31;5074961;28;20305;-74
2021/09/19 04:45:18;;;;;;;7.03;6.30;;;;;;;13.83;94.21;98973.19;5075251;28;20281;-73
2021/09/19 04:47:46;;;;;;;10.35;6.90;;;;;;;13.89;93.79;98976.25;5074988;28;20238;-74
2021/09/19 04:50:13;;;;;;;8.10;6.18;;;;;;;13.80;94.11;98974.28;5075166;28;20645;-73
2021/09/19 04:52:40;;;;;;;7.90;7.10;;;;;;;13.71;94.14;98977.75;5075539;28;20186;-73
2021/09/19 04:55:07;;;;;;;7.68;6.88;;;;;;;13.72;94.62;98969.47;5067090;28;20198;-74
2021/09/19 04:57:34;;;;;;;7.82;6.95;;;;;;;13.60;95.54;98975.91;5075651;28;20285;-74
2021/09/19 05:00:01;;;;;;;9.63;6.50;;;;;;;13.71;94.08;98973.19;5075150;28;20190;-74
2021/09/19 05:02:27;;;;;;;8.25;7.32;;;;;;;13.56;95.35;98983.38;5075048;28;20298;-74
2021/09/19 05:04:55;;;;;;;6.85;6.05;;;;;;;13.69;94.69;98987.81;5075032;28;20202;-74
2021/09/19 05:07:22;;;;;;;7.40;6.35;;;;;;;13.60;95.52;98991.28;5075074;28;20510;-74
2021/09/19 05:09:48;;;;;;;8.75;6.97;;;;;;;13.75;94.30;98992.75;5074837;28;20286;-74
2021/09/19 05:12:15;;;;;;;7.78;6.97;;;;;;;13.56;95.37;98996.91;5074863;28;20192;-74
2021/09/19 05:14:42;;;;;;;8.20;7.40;;;;;;;13.59;95.39;98994.94;5074182;28;20198;-74
2021/09/19 05:17:08;;;;;;;7.15;6.45;;;;;;;13.60;95.26;98992.13;5074936;28;20196;-74
2021/09/19 05:19:35;;;;;;;9.40;7.10;;;;;;;13.62;94.87;98992.00;5074959;28;20552;-74
2021/09/19 05:22:04;;;;;;;7.07;6.05;;;;;;;13.63;94.43;98996.44;5074342;28;20242;-73
2021/09/19 05:24:31;;;;;;;7.70;7.00;;;;;;;13.50;95.66;98997.41;5074160;28;20286;-73
2021/09/19 05:26:57;;;;;;;8.98;6.47;;;;;;;13.51;94.87;98996.44;5074440;28;20231;-73
2021/09/19 05:29:24;;;;;;;7.35;6.53;;;;;;;13.39;97.02;98996.56;5074936;28;20552;-74
2021/09/19 05:31:50;;;;;;;8.70;7.05;;;;;;;13.36;97.14;98994.94;5074647;28;20220;-73
2021/09/19 05:34:18;;;;;;;9.00;7.20;;;;;;;13.31;97.98;98997.16;5074667;28;20186;-73
2021/09/19 05:36:44;;;;;;;7.97;5.95;;;;;;;13.44;96.76;99006.00;5074694;28;20185;-73
2021/09/19 05:39:12;;;;;;;16.17;7.40;;;;;;;13.53;96.31;98999.88;5074705;28;20201;-73
2021/09/19 05:41:39;;;;;;;8.73;7.05;;;;;;;13.48;95.68;99002.09;5074610;28;20530;-73
2021/09/19 05:44:05;;;;;;;7.18;6.47;;;;;;;13.60;94.55;99004.81;5074549;28;20667;-73
2021/09/19 05:46:32;;;;;;;11.90;6.47;;;;;;;13.51;95.39;99009.94;5074095;28;20202;-73
2021/09/19 05:48:59;;;;;;;6.38;5.70;;;;;;;13.48;94.85;99003.94;5074593;28;20560;-73
2021/09/19 05:51:26;;;;;;;8.38;6.55;;;;;;;13.52;94.97;99008.97;5073964;28;20205;-73
2021/09/19 05:53:53;;;;;;;7.72;6.55;;;;;;;13.69;93.34;99012.19;5074050;28;20222;-73
2021/09/19 05:56:20;;;;;;;8.13;6.97;;;;;;;13.63;93.97;99007.25;5074167;28;20617;-73
2021/09/19 05:58:47;;;;;;;7.78;6.20;;;;;;;13.63;93.98;99009.94;5073935;28;20228;-73
2021/09/19 06:01:14;;;;;;;7.00;6.07;;;;;;;13.78;92.99;99006.03;5074575;28;20263;-73
2021/09/19 06:03:41;;;;;;;6.50;5.90;;;;;;;13.83;92.46;98997.53;5074051;28;20702;-73
2021/09/19 06:06:08;;;;;;;7.82;6.18;;;;;;;13.85;92.17;98995.56;5073907;28;20198;-73
2021/09/19 06:08:35;;;;;;;6.60;6.00;;;;;;;13.77;91.85;98998.91;5067379;28;20199;-73
2021/09/19 06:11:01;;;;;;;6.50;5.88;;;;;;;13.63;92.75;98999.13;5074007;28;20637;-73
2021/09/19 06:13:29;;;;;;;6.32;5.72;;;;;;;13.83;90.67;98997.53;5074005;28;20194;-73
2021/09/19 06:15:56;;;;;;;6.35;5.75;;;;;;;13.71;91.58;98989.41;5073692;28;20232;-74
2021/09/19 06:18:23;;;;;;;8.25;5.40;;;;;;;13.66;92.35;98997.06;5073692;28;20284;-73
2021/09/19 06:20:49;;;;;;;6.00;5.45;;;;;;;13.72;92.47;98993.84;5073480;28;20203;-73
2021/09/19 06:23:16;;;;;;;6.32;5.70;;;;;;;13.71;92.16;98994.84;5073788;28;20687;-72
2021/09/19 06:25:44;;;;;;;5.15;4.75;;;;;;;14.01;89.87;98990.59;5073968;28;20182;-72
2021/09/19 06:28:10;;;;;;;6.05;5.22;;;;;;;13.95;89.81;99000.09;5073251;28;20280;-73
2021/09/19 06:30:38;;;;;;;7.63;5.13;;;;;;;13.93;90.66;98996.66;5073413;28;20188;-73
2021/09/19 06:33:05;;;;;;;5.68;5.18;;;;;;;13.94;89.59;99001.06;5073928;28;20183;-73
2021/09/19 06:35:32;;;;;;;5.47;4.97;;;;;;;14.10;88.92;98999.81;5073759;28;20297;-73
2021/09/19 06:37:59;;;;;;;5.05;4.65;;;;;;;14.15;88.04;99001.16;5073411;28;20278;-73
2021/09/19 06:40:25;;;;;;;6.03;5.40;;;;;;;14.19;87.78;98996.34;5073886;28;20198;-73
2021/09/19 06:42:52;;;;;;;6.32;5.72;;;;;;;14.16;88.01;98996.63;5073505;28;20298;-73
2021/09/19 06:45:18;;;;;;;6.18;4.80;;;;;;;14.26;87.24;99002.97;5073559;28;20623;-73
2021/09/19 06:47:46;;;;;;;9.00;5.10;;;;;;;14.31;86.23;99006.19;5073652;28;20253;-73
2021/09/19 06:50:13;;;;;;;5.40;4.90;;;;;;;14.43;85.76;99003.44;5074013;28;20639;-73
2021/09/19 06:52:40;;;;;;;7.20;5.43;;;;;;;14.42;85.80;99009.84;5073311;28;20200;-73
2021/09/19 06:55:09;;;;;;;6.90;4.75;;;;;;;14.46;84.86;99014.00;5073438;28;20182;-73
2021/09/19 06:57:35;;;;;;;6.15;5.47;;;;;;;14.48;84.92;99002.06;5072453;28;20295;-73
2021/09/19 07:00:04;;;;;;;6.32;5.70;;;;;;;14.54;84.71;99014.22;5072997;28;20188;-73
2021/09/19 07:02:30;;;;;;;5.47;4.97;;;;;;;14.46;85.32;99020.28;5073033;28;20203;-73
2021/09/19 07:04:58;;;;;;;5.10;4.20;;;;;;;14.66;83.97;99015.94;5073075;28;20192;-73
2021/09/19 07:07:25;;;;;;;6.55;5.90;;;;;;;14.35;85.63;99004.06;5072831;28;20195;-73
2021/09/19 07:09:52;;;;;;;5.68;5.15;;;;;;;14.41;85.32;99008.13;5073013;28;20291;-73
2021/09/19 07:12:18;;;;;;;6.05;5.30;;;;;;;14.39;85.87;99016.38;5073132;28;20191;-73
2021/09/19 07:14:48;;;;;;;5.15;4.68;;;;;;;14.39;85.90;99014.50;5073289;28;20602;-74
2021/09/19 07:17:14;;;;;;;5.25;4.75;;;;;;;14.66;84.33;99015.94;5073257;28;20696;-74
2021/09/19 07:19:41;;;;;;;4.95;4.45;;;;;;;14.57;83.91;99019.44;5073182;28;20210;-74
2021/09/19 07:22:09;;;;;;;5.55;5.05;;;;;;;14.56;85.03;99020.41;5072982;28;20283;-74
2021/09/19 07:24:36;;;;;;;5.22;4.60;;;;;;;14.79;83.62;99022.03;5073106;28;20224;-74
2021/09/19 07:27:03;;;;;;;5.30;4.80;;;;;;;14.85;82.81;99025.22;5072880;28;20232;-74
2021/09/19 07:29:30;;;;;;;5.95;4.90;;;;;;;15.03;81.96;99026.34;5073106;28;20203;-74
2021/09/19 07:32:00;;;;;;;4.25;3.95;;;;;;;15.35;79.84;99023.59;5073035;28;20544;-73
2021/09/19 07:34:27;;;;;;;4.68;4.28;;;;;;;15.08;80.99;99031.38;5073257;28;20185;-73
2021/09/19 07:36:55;;;;;;;5.57;4.93;;;;;;;15.11;81.92;99039.28;5072870;28;20199;-73
2021/09/19 07:39:23;;;;;;;5.38;4.68;;;;;;;15.20;80.67;99041.19;5073270;28;20188;-73
2021/09/19 07:41:53;;;;;;;5.13;4.63;;;;;;;15.05;81.80;99037.09;5072650;28;20191;-73
2021/09/19 07:44:20;;;;;;;4.97;4.45;;;;;;;14.95;82.42;99042.44;5072640;28;20231;-73
2021/09/19 07:46:49;;;;;;;7.30;5.13;;;;;;;15.22;81.43;99042.78;5073120;28;20704;-73
2021/09/19 07:49:16;;;;;;;5.15;4.30;;;;;;;15.54;79.80;99043.69;5073064;28;20188;-74
2021/09/19 07:51:43;;;;;;;4.70;4.18;;;;;;;15.53;79.29;99050.09;5072638;28;20197;-73
2021/09/19 07:54:10;;;;;;;5.38;4.18;;;;;;;15.75;78.61;99052.66;5073024;28;20193;-74
2021/09/19 07:56:38;;;;;;;10.80;8.45;;;;;;;16.01;77.28;99050.38;5073091;28;20187;-74
2021/09/19 07:59:05;;;;;;;6.22;3.97;;;;;;;16.11;76.28;99057.69;5072953;28;20196;-74
2021/09/19 08:01:31;;;;;;;4.97;4.25;;;;;;;16.44;74.66;99057.34;5073158;28;20568;-74
2021/09/19 08:03:58;;;;;;;5.57;4.10;;;;;;;16.62;74.41;99059.38;5072826;28;20224;-74
2021/09/19 08:06:25;;;;;;;6.00;4.20;;;;;;;16.97;72.83;99066.19;5072995;28;20188;-74
2021/09/19 08:08:52;;;;;;;6.50;4.15;;;;;;;17.09;71.57;99067.72;5073176;28;20579;-74
2021/09/19 08:11:20;;;;;;;3.95;3.53;;;;;;;17.12;71.82;99061.16;5076449;28;20200;-74
2021/09/19 08:13:48;;;;;;;6.72;3.95;;;;;;;16.70;72.63;99058.69;5076546;28;20189;-74
2021/09/19 08:16:15;;;;;;;6.20;3.70;;;;;;;16.82;73.12;99054.84;5076137;28;20189;-74
2021/09/19 08:18:42;;;;;;;4.60;4.20;;;;;;;16.87;72.61;99058.03;5076326;28;20236;-74
2021/09/19 08:21:09;;;;;;;3.50;3.20;;;;;;;16.83;72.45;99060.16;5076545;28;20181;-74
2021/09/19 08:23:35;;;;;;;4.05;3.65;;;;;;;17.13;71.81;99061.00;5076395;28;20230;-74
2021/09/19 08:26:02;;;;;;;7.30;4.88;;;;;;;17.35;70.28;99068.00;5076151;28;20267;-75
2021/09/19 08:28:29;;;;;;;4.15;3.28;;;;;;;17.43;69.53;99068.13;5076169;28;20238;-73
2021/09/19 08:30:57;;;;;;;3.95;3.65;;;;;;;17.53;69.25;99079.00;5075862;28;20209;-74
2021/09/19 08:33:27;;;;;;;4.63;3.72;;;;;;;17.59;68.96;99073.00;5076464;28;20197;-73
2021/09/19 08:35:55;;;;;;;7.38;3.65;;;;;;;17.61;69.01;99065.50;5075781;28;20191;-73
2021/09/19 08:38:22;;;;;;;3.60;3.13;;;;;;;17.71;68.56;99060.91;5076173;28;20287;-74
2021/09/19 08:40:49;;;;;;;5.05;4.55;;;;;;;17.77;68.25;99064.03;5075971;28;20248;-74
2021/09/19 08:43:17;;;;;;;3.90;3.60;;;;;;;17.78;67.76;99055.72;5075703;28;20235;-74
2021/09/19 08:45:46;;;;;;;5.07;4.35;;;;;;;17.83;68.06;99055.31;5075420;28;20194;-74
2021/09/19 08:48:16;;;;;;;3.50;3.20;;;;;;;18.07;67.59;99061.09;5075804;28;20639;-74
2021/09/19 08:50:43;;;;;;;4.07;3.67;;;;;;;18.15;67.24;99056.75;5075091;28;20231;-74
2021/09/19 08:53:10;;;;;;;3.47;3.17;;;;;;;18.37;66.33;99060.97;5075832;28;20183;-74
2021/09/19 08:55:36;;;;;;;4.28;3.88;;;;;;;18.70;65.01;99068.50;5075703;28;20533;-74
2021/09/19 08:58:03;;;;;;;3.97;3.65;;;;;;;18.68;64.80;99066.94;5075254;28;20198;-74
2021/09/19 09:00:39;;;;;;;4.82;3.80;;;;;;;18.73;64.58;99072.78;5074701;28;20233;-74
2021/09/19 09:03:10;;;;;;;3.65;3.35;;;;;;;18.90;64.36;99066.53;5073886;28;20202;-74
2021/09/19 09:05:39;;;;;;;4.07;3.40;;;;;;;18.97;63.91;99064.00;5074905;28;20654;-74
2021/09/19 09:08:08;;;;;;;4.25;3.85;;;;;;;19.10;63.71;99069.06;5075008;28;20195;-74
2021/09/19 09:10:40;;;;;;;3.65;3.45;;;;;;;19.03;64.18;99066.13;5074934;28;20642;-74
2021/09/19 09:13:09;;;;;;;3.40;3.13;;;;;;;18.99;64.05;99061.97;5074699;28;20194;-74
2021/09/19 09:15:40;;;;;;;4.78;3.92;;;;;;;18.92;64.24;99064.47;5074352;28;20289;-74
2021/09/19 09:18:08;;;;;;;3.70;3.40;;;;;;;18.93;64.57;99066.19;5074758;28;20190;-74
2021/09/19 09:20:55;;;;;;;6.07;4.07;;;;;;;19.20;63.72;99068.97;5074386;28;20192;-75
2021/09/19 09:23:28;;;;;;;7.93;5.57;;;;;;;19.41;64.07;99069.53;5074171;28;20213;-74
2021/09/19 09:26:09;;;;;;;4.65;4.25;;;;;;;19.42;63.06;99076.69;5074812;28;20616;-75
2021/09/19 09:28:40;;;;;;;5.03;4.53;;;;;;;19.55;62.89;99079.84;5074149;28;20278;-75
2021/09/19 09:31:07;;;;;;;4.78;4.38;;;;;;;19.45;62.73;99078.25;5073751;28;20192;-75
2021/09/19 09:33:34;;;;;;;4.30;3.90;;;;;;;19.69;62.18;99072.13;5073896;28;20203;-74
2021/09/19 09:36:08;;;;;;;4.93;4.38;;;;;;;19.94;62.12;99078.59;5074079;28;20184;-74
2021/09/19 09:38:36;;;;;;;4.85;3.85;;;;;;;20.08;61.37;99074.41;5073695;28;20200;-74
2021/09/19 09:41:05;;;;;;;5.22;4.10;;;;;;;19.78;62.32;99072.03;5074074;28;20193;-74
2021/09/19 09:43:31;;;;;;;4.00;3.60;;;;;;;19.84;62.01;99072.41;5073847;28;20212;-74
2021/09/19 09:46:11;;;;;;;4.40;4.00;;;;;;;19.83;62.33;99066.09;5074065;28;20545;-74
2021/09/19 09:48:41;;;;;;;6.10;4.57;;;;;;;19.98;61.61;99067.19;5073098;28;20188;-74
2021/09/19 09:51:22;;;;;;;4.88;4.20;;;;;;;19.95;61.98;99074.88;5073818;28;20298;-74
2021/09/19 09:53:59;;;;;;;4.50;4.10;;;;;;;19.93;61.62;99066.81;5065817;28;20177;-74
2021/09/19 09:56:25;;;;;;;5.70;4.28;;;;;;;19.78;62.48;99071.16;5073941;28;20959;-74
2021/09/19 09:58:53;;;;;;;4.50;4.10;;;;;;;20.14;61.58;99069.16;5065763;28;20198;-74
2021/09/19 10:01:21;;;;;;;4.38;3.90;;;;;;;20.58;60.11;99071.78;5074143;28;20214;-74
2021/09/19 10:03:48;;;;;;;4.60;4.20;;;;;;;20.74;59.54;99070.97;5073433;28;20307;-74
2021/09/19 10:06:14;;;;;;;4.97;4.47;;;;;;;21.17;58.02;99076.34;5073492;28;20525;-74
2021/09/19 10:08:43;;;;;;;5.30;4.77;;;;;;;21.17;57.98;99081.81;5073916;28;20518;-74
2021/09/19 10:11:10;;;;;;;5.10;4.60;;;;;;;21.23;58.09;99078.38;5073463;28;20443;-74
2021/09/19 10:13:44;;;;;;;3.90;3.60;;;;;;;21.55;56.63;99073.94;5073403;28;20431;-74
2021/09/19 10:16:12;;;;;;;5.30;4.80;;;;;;;21.81;55.95;99081.97;5073123;28;20427;-75
2021/09/19 10:18:39;;;;;;;5.73;4.87;;;;;;;22.06;54.66;99075.41;5072979;28;20442;-75
2021/09/19 10:21:06;;;;;;;6.07;4.30;;;;;;;22.36;54.23;99072.94;5073521;28;20441;-74
2021/09/19 10:23:35;;;;;;;4.80;4.40;;;;;;;22.47;53.65;99077.16;5072675;28;20536;-74
2021/09/19 10:26:08;;;;;;;5.50;5.00;;;;;;;22.65;52.91;99071.44;5073033;28;20797;-75
2021/09/19 10:28:38;;;;;;;6.93;5.50;;;;;;;22.56;53.16;99072.50;5073507;28;20915;-74
2021/09/19 10:31:31;;;;;;;5.60;5.10;;;;;;;22.44;52.91;99077.53;5073184;28;20480;-75
2021/09/19 10:34:00;;;;;;;5.83;5.33;;;;;;;22.22;52.79;99065.44;5072132;28;20435;-75
2021/09/19 10:36:40;;;;;;;5.27;4.87;;;;;;;22.23;53.01;99072.66;5073315;28;20450;-74
2021/09/19 10:39:18;;;;;;;5.73;5.13;;;;;;;22.41;52.68;99076.00;5072934;28;20896;-74
2021/09/19 10:42:14;;;;;;;5.87;5.37;;;;;;;22.25;52.84;99071.44;5072974;28;20435;-74
2021/09/19 10:45:17;;;;;;;5.47;5.07;;;;;;;22.36;52.78;99063.84;5069232;28;20466;-75
2021/09/19 10:47:53;;;;;;;7.83;4.80;;;;;;;22.85;51.54;99069.94;5041455;28;20475;-75
2021/09/19 10:50:36;;;;;;;5.50;5.00;;;;;;;22.87;51.49;99069.75;5065662;28;20524;-74
2021/09/19 10:53:05;;;;;;;6.80;5.00;;;;;;;23.13;51.15;99069.44;5073219;28;20470;-74
2021/09/19 10:55:46;;;;;;;10.47;5.97;;;;;;;23.49;50.05;99061.44;5073426;28;20966;-74
2021/09/19 10:58:19;;;;;;;5.20;4.80;;;;;;;23.19;50.60;99060.47;5073115;28;20793;-74
2021/09/19 11:01:15;;;;;;;5.10;4.70;;;;;;;22.97;51.08;99058.53;5073314;28;20522;-75
2021/09/19 11:03:43;;;;;;;5.90;5.40;;;;;;;22.92;50.80;99055.50;5072754;28;20529;-75
2021/09/19 11:06:29;;;;;;;5.07;4.67;;;;;;;22.45;52.74;99060.03;5073126;28;20442;-75
2021/09/19 11:08:56;;;;;;;4.73;4.40;;;;;;;22.23;53.20;99062.53;5072643;28;20788;-74
2021/09/19 11:11:28;;;;;;;7.07;5.90;;;;;;;22.57;53.02;99058.63;5072671;28;20463;-74
2021/09/19 11:14:06;;;;;;;5.33;4.87;;;;;;;22.73;52.50;99060.41;5073273;28;20906;-74
2021/09/19 11:16:37;;;;;;;7.03;5.30;;;;;;;22.91;51.73;99065.63;5065044;28;20434;-74
2021/09/19 11:19:07;;;;;;;6.47;4.90;;;;;;;22.35;52.83;99071.22;5072531;28;20433;-75
2021/09/19 11:21:41;;;;;;;5.30;4.80;;;;;;;21.95;54.10;99069.44;5064066;28;20975;-74
2021/09/19 11:24:11;;;;;;;9.17;5.70;;;;;;;22.54;51.54;99071.81;5072746;28;20982;-74
2021/09/19 11:26:40;;;;;;;5.20;4.80;;;;;;;23.01;50.13;99069.00;5072411;28;20499;-75
2021/09/19 11:29:09;;;;;;;5.00;4.47;;;;;;;23.52;49.50;99065.72;5072873;28;20513;-75
2021/09/19 11:31:40;;;;;;;5.70;5.20;;;;;;;23.58;49.09;99061.34;5072229;28;20444;-75
2021/09/19 11:34:09;;;;;;;4.87;4.50;;;;;;;23.85;48.27;99068.16;5072007;28;20427;-75